Time;durP1;ratioP1;P1;durP2;ratioP2;P2;SDS_P1;SDS_P2;PMS_P1;PMS_P2;Temp;Humidity;BMP_temperature;BMP_pressure;BME280_temperature;BME280_humidity;BME280_pressure;Samples;Min_cycle;Max_cycle;Signal;HPM_P1;HPM_P2
2021/12/28 00:00:07;;;;;;;14.23;5.93;;;;;;;6.64;100.00;99403.16;5088336;28;20890;-67
2021/12/28 00:02:33;;;;;;;13.45;5.50;;;;;;;6.61;100.00;99384.22;5089531;28;20032;-67
2021/12/28 00:04:58;;;;;;;15.68;7.15;;;;;;;6.56;100.00;99382.19;5089444;28;20027;-67
2021/12/28 00:07:24;;;;;;;12.77;5.28;;;;;;;6.55;100.00;99378.75;5088270;28;20040;-67
2021/12/28 00:09:49;;;;;;;18.25;6.57;;;;;;;6.54;100.00;99377.09;5088202;28;20142;-67
2021/12/28 00:12:15;;;;;;;17.52;6.72;;;;;;;6.54;100.00;99373.63;5089495;28;20031;-67
2021/12/28 00:14:49;;;;;;;15.00;6.22;;;;;;;6.53;100.00;99366.72;5089473;28;20459;-67
2021/12/28 00:19:58;;;;;;;16.70;5.85;;;;;;;6.48;100.00;99385.06;5089414;28;20717;-67
2021/12/28 00:22:24;;;;;;;17.98;6.78;;;;;;;6.48;100.00;99379.78;5089374;28;20032;-67
2021/12/28 00:24:49;;;;;;;13.23;5.70;;;;;;;6.47;100.00;99383.41;5089299;28;20028;-67
2021/12/28 00:27:14;;;;;;;20.60;6.00;;;;;;;6.41;100.00;99377.13;5089059;28;20028;-67
2021/12/28 00:29:41;;;;;;;13.25;5.30;;;;;;;6.36;100.00;99366.31;5088776;28;20031;-67
2021/12/28 00:32:07;;;;;;;24.75;6.63;;;;;;;6.41;100.00;99378.97;5089163;28;20046;-67
2021/12/28 00:34:34;;;;;;;13.25;5.55;;;;;;;6.39;100.00;99370.41;5089134;28;20045;-67
2021/12/28 00:36:59;;;;;;;15.65;5.97;;;;;;;6.39;100.00;99376.50;5089193;28;20073;-67
2021/12/28 00:39:25;;;;;;;13.13;5.47;;;;;;;6.38;100.00;99376.72;5089105;28;20024;-67
2021/12/28 00:41:51;;;;;;;17.20;6.22;;;;;;;6.37;100.00;99367.97;5089152;28;20118;-67
2021/12/28 00:44:18;;;;;;;15.55;7.13;;;;;;;6.33;100.00;99367.56;5088898;28;20036;-66
2021/12/28 00:46:44;;;;;;;15.25;6.00;;;;;;;6.31;100.00;99360.84;5088746;28;20107;-67
2021/12/28 00:49:09;;;;;;;18.58;7.43;;;;;;;6.32;100.00;99365.13;5088791;28;20127;-67
2021/12/28 00:51:35;;;;;;;17.92;5.63;;;;;;;6.24;100.00;99349.47;5089125;28;20031;-67
2021/12/28 00:54:00;;;;;;;22.15;6.68;;;;;;;6.27;100.00;99354.34;5088853;28;20032;-67
2021/12/28 00:56:25;;;;;;;17.48;5.75;;;;;;;6.23;100.00;99355.75;5089078;28;20028;-67
2021/12/28 00:58:51;;;;;;;20.42;6.68;;;;;;;6.19;100.00;99354.56;5088593;28;20621;-67
2021/12/28 01:01:16;;;;;;;16.42;5.65;;;;;;;6.17;100.00;99352.09;5087696;28;20028;-67
2021/12/28 01:03:41;;;;;;;14.73;4.50;;;;;;;6.13;100.00;99350.88;5088934;28;20479;-67
2021/12/28 01:06:07;;;;;;;18.02;5.72;;;;;;;6.13;100.00;99349.06;5087548;28;20387;-67
2021/12/28 01:08:33;;;;;;;13.88;5.55;;;;;;;6.07;100.00;99339.25;5088121;28;20035;-67
2021/12/28 01:10:59;;;;;;;19.98;5.68;;;;;;;6.07;100.00;99347.22;5088487;28;20040;-68
2021/12/28 01:13:26;;;;;;;10.50;5.05;;;;;;;6.01;100.00;99337.44;5088714;28;20629;-66
2021/12/28 01:15:52;;;;;;;23.77;7.55;;;;;;;6.11;100.00;99339.69;5088827;28;20031;-67
2021/12/28 01:18:18;;;;;;;15.63;5.30;;;;;;;6.12;100.00;99334.19;5088786;28;20032;-67
2021/12/28 01:20:45;;;;;;;14.43;5.28;;;;;;;6.15;100.00;99333.75;5088241;28;20487;-67
2021/12/28 01:23:11;;;;;;;13.68;5.50;;;;;;;6.19;100.00;99331.53;5088683;28;20119;-67
2021/12/28 01:25:37;;;;;;;17.75;5.82;;;;;;;6.22;100.00;99340.91;5069219;28;20032;-66
2021/12/28 01:28:03;;;;;;;14.13;4.70;;;;;;;6.25;100.00;99336.00;5069048;28;20033;-67
2021/12/28 01:30:31;;;;;;;13.55;4.63;;;;;;;6.27;100.00;99344.56;5069110;28;20123;-67
2021/12/28 01:33:00;;;;;;;17.55;6.05;;;;;;;6.27;100.00;99339.25;5088368;28;20181;-66
2021/12/28 01:35:27;;;;;;;18.48;6.55;;;;;;;6.28;100.00;99335.59;5088539;28;20035;-67
2021/12/28 01:37:52;;;;;;;17.02;5.07;;;;;;;6.27;100.00;99339.25;5088686;28;20039;-66
2021/12/28 01:40:22;;;;;;;13.18;5.30;;;;;;;6.28;100.00;99340.88;5092275;28;20027;-67
2021/12/28 01:43:11;;;;;;;16.20;4.60;;;;;;;6.28;100.00;99337.41;5091982;28;20406;-67
2021/12/28 01:45:46;;;;;;;18.67;6.00;;;;;;;6.22;100.00;99333.75;5088399;28;20117;-67
2021/12/28 01:48:43;;;;;;;20.15;5.10;;;;;;;6.19;100.00;99330.72;5091876;28;20107;-66
2021/12/28 01:51:11;;;;;;;18.40;5.45;;;;;;;6.18;100.00;99334.38;5091653;28;20043;-66
2021/12/28 01:53:38;;;;;;;23.40;4.95;;;;;;;6.13;100.00;99327.88;5090653;28;20383;-67
2021/12/28 01:56:07;;;;;;;23.65;6.88;;;;;;;6.13;100.00;99345.56;5091843;28;20145;-67
2021/12/28 01:58:33;;;;;;;17.08;5.30;;;;;;;6.08;100.00;99334.81;5091458;28;20155;-67
2021/12/28 02:00:59;;;;;;;18.25;5.57;;;;;;;6.11;100.00;99342.34;5091641;28;20024;-67
2021/12/28 02:03:26;;;;;;;14.55;5.00;;;;;;;6.09;100.00;99331.13;5091790;28;20034;-67
2021/12/28 02:05:52;;;;;;;19.45;6.20;;;;;;;6.04;100.00;99329.09;5091483;28;20114;-67
2021/12/28 02:08:18;;;;;;;17.13;4.93;;;;;;;5.98;100.00;99329.13;5091398;28;20054;-67
2021/12/28 02:10:46;;;;;;;17.73;6.40;;;;;;;5.97;100.00;99332.75;5091474;28;20111;-67
2021/12/28 02:13:12;;;;;;;23.13;6.20;;;;;;;5.98;100.00;99329.91;5091533;28;20606;-67
2021/12/28 02:15:37;;;;;;;19.38;5.90;;;;;;;5.95;100.00;99325.03;5091144;28;20094;-67
2021/12/28 02:18:05;;;;;;;15.52;5.88;;;;;;;5.93;100.00;99330.53;5091413;28;20024;-67
2021/12/28 02:20:31;;;;;;;17.58;5.22;;;;;;;5.94;100.00;99328.69;5091493;28;20051;-67
2021/12/28 02:22:57;;;;;;;21.92;4.80;;;;;;;5.94;100.00;99328.69;5091393;28;20027;-67
2021/12/28 02:25:23;;;;;;;10.00;4.30;;;;;;;5.93;100.00;99319.09;5072051;28;20032;-67
2021/12/28 02:27:48;;;;;;;20.00;5.05;;;;;;;5.91;100.00;99321.13;5071819;28;20028;-67
2021/12/28 02:30:18;;;;;;;17.42;4.80;;;;;;;5.90;100.00;99320.31;5071817;28;20383;-67
2021/12/28 02:32:45;;;;;;;14.63;5.15;;;;;;;5.91;100.00;99321.94;5071946;28;20040;-66
2021/12/28 02:35:14;;;;;;;21.05;5.60;;;;;;;5.92;100.00;99314.81;5071861;28;20170;-67
2021/12/28 02:37:40;;;;;;;13.23;5.25;;;;;;;5.97;100.00;99309.75;5071867;28;20032;-67
2021/12/28 02:40:07;;;;;;;25.80;5.53;;;;;;;5.99;100.00;99301.63;5071910;28;20031;-67
2021/12/28 02:42:33;;;;;;;15.50;4.40;;;;;;;6.00;100.00;99296.13;5071816;28;20036;-67
2021/12/28 02:45:12;;;;;;;20.70;4.65;;;;;;;6.04;100.00;99299.97;5071668;28;20459;-67
2021/12/28 02:47:39;;;;;;;19.73;5.05;;;;;;;6.07;100.00;99302.22;5071524;28;20020;-67
2021/12/28 02:50:08;;;;;;;20.65;6.68;;;;;;;6.08;100.00;99295.91;5070395;28;20016;-67
2021/12/28 02:52:38;;;;;;;16.92;4.95;;;;;;;6.08;100.00;99293.28;5071615;28;20065;-67
2021/12/28 02:55:11;;;;;;;15.18;4.20;;;;;;;6.12;100.00;99298.97;5071481;28;20391;-66
2021/12/28 02:57:37;;;;;;;17.80;5.65;;;;;;;6.15;100.00;99298.53;5071257;28;20048;-66
2021/12/28 03:00:06;;;;;;;21.17;4.78;;;;;;;6.19;100.00;99288.38;5071396;28;20021;-67
2021/12/28 03:02:32;;;;;;;20.45;5.25;;;;;;;6.16;100.00;99286.94;5071262;28;20476;-66
2021/12/28 03:04:57;;;;;;;22.08;4.57;;;;;;;6.15;100.00;99272.88;5071090;28;20020;-67
2021/12/28 03:07:23;;;;;;;17.10;4.75;;;;;;;6.17;100.00;99285.13;5069710;28;20047;-67
2021/12/28 03:09:49;;;;;;;25.95;6.32;;;;;;;6.15;100.00;99285.31;5070616;28;20502;-67
2021/12/28 03:12:14;;;;;;;16.50;4.35;;;;;;;6.13;100.00;99285.53;5070629;28;20032;-67
2021/12/28 03:14:40;;;;;;;17.02;4.47;;;;;;;6.17;100.00;99282.47;5071037;28;20391;-67
2021/12/28 03:17:05;;;;;;;18.23;4.47;;;;;;;6.18;100.00;99269.00;5071131;28;20433;-67
2021/12/28 03:19:31;;;;;;;15.60;4.85;;;;;;;6.22;100.00;99267.59;5070987;28;20032;-66
2021/12/28 03:21:58;;;;;;;14.27;4.22;;;;;;;6.23;100.00;99265.75;5070806;28;20165;-67
2021/12/28 03:24:24;;;;;;;20.02;5.25;;;;;;;6.27;100.00;99269.63;5089821;28;20114;-67
2021/12/28 03:26:50;;;;;;;14.93;3.75;;;;;;;6.29;100.00;99262.28;5090161;28;20028;-67
2021/12/28 03:29:15;;;;;;;11.05;3.75;;;;;;;6.31;100.00;99257.56;5081317;28;20038;-67
2021/12/28 03:31:41;;;;;;;26.35;4.82;;;;;;;6.36;100.00;99250.63;5070542;28;20039;-67
2021/12/28 03:34:06;;;;;;;17.70;4.80;;;;;;;6.38;100.00;99261.03;5069435;28;20036;-67
2021/12/28 03:36:32;;;;;;;20.08;4.63;;;;;;;6.39;100.00;99252.03;5069301;28;20032;-67
2021/12/28 03:38:58;;;;;;;17.58;4.47;;;;;;;6.41;100.00;99244.72;5070607;28;20075;-67
2021/12/28 03:41:26;;;;;;;19.70;3.53;;;;;;;6.41;100.00;99238.59;5070481;28;20036;-67
2021/12/28 03:43:53;;;;;;;17.83;3.92;;;;;;;6.42;100.00;99240.22;5070545;28;21027;-67
2021/12/28 03:46:21;;;;;;;18.42;4.53;;;;;;;6.41;100.00;99243.91;5089772;28;20028;-67
2021/12/28 03:48:47;;;;;;;20.48;4.72;;;;;;;6.39;100.00;99235.34;5089785;28;20044;-67
2021/12/28 03:51:13;;;;;;;21.08;5.97;;;;;;;6.36;100.00;99231.28;5089719;28;20119;-67
2021/12/28 03:53:39;;;;;;;23.15;4.78;;;;;;;6.30;100.00;99219.69;5089817;28;20070;-67
2021/12/28 03:56:07;;;;;;;21.40;5.07;;;;;;;6.32;100.00;99222.16;5089716;28;20048;-67
2021/12/28 03:58:34;;;;;;;14.57;4.32;;;;;;;6.33;100.00;99223.75;5089313;28;20048;-66
2021/12/28 04:01:02;;;;;;;20.45;4.40;;;;;;;6.34;100.00;99214.78;5089242;28;20051;-67
2021/12/28 04:03:27;;;;;;;13.85;3.35;;;;;;;6.41;100.00;99209.47;5089219;28;20032;-67
2021/12/28 04:05:53;;;;;;;17.48;4.35;;;;;;;6.49;100.00;99214.53;5089539;28;20028;-67
2021/12/28 04:08:22;;;;;;;11.57;2.97;;;;;;;6.53;100.00;99213.09;5069762;28;20028;-67
2021/12/28 04:10:52;;;;;;;17.70;4.07;;;;;;;6.58;100.00;99216.75;5089491;28;20028;-66
2021/12/28 04:13:19;;;;;;;18.10;3.83;;;;;;;6.65;100.00;99216.69;5089366;28;20024;-66
2021/12/28 04:15:45;;;;;;;15.48;5.90;;;;;;;6.73;100.00;99216.47;5088037;28;20541;-67
2021/12/28 04:18:11;;;;;;;17.58;4.88;;;;;;;6.77;100.00;99214.22;5089220;28;20608;-66
2021/12/28 04:20:36;;;;;;;18.42;3.60;;;;;;;6.84;100.00;99215.00;5089321;28;20059;-67
2021/12/28 04:23:02;;;;;;;16.25;3.42;;;;;;;6.91;100.00;99217.59;5089187;28;20055;-67
2021/12/28 04:25:27;;;;;;;17.88;3.85;;;;;;;6.94;100.00;99214.50;5087915;28;20024;-67
2021/12/28 04:27:53;;;;;;;17.48;3.95;;;;;;;6.95;100.00;99210.84;5089321;28;20085;-67
2021/12/28 04:30:18;;;;;;;13.75;3.22;;;;;;;7.02;100.00;99214.25;5087985;28;20033;-66
2021/12/28 04:32:44;;;;;;;17.23;4.35;;;;;;;7.06;100.00;99212.81;5089570;28;20370;-67
2021/12/28 04:35:10;;;;;;;16.27;4.22;;;;;;;7.12;100.00;99214.59;5089225;28;20032;-67
2021/12/28 04:37:36;;;;;;;13.90;3.35;;;;;;;7.16;100.00;99213.16;5083156;28;20060;-67
2021/12/28 04:40:03;;;;;;;15.88;3.58;;;;;;;7.18;100.00;99210.28;5070020;28;20056;-67
2021/12/28 04:42:30;;;;;;;13.32;3.65;;;;;;;7.22;100.00;99216.78;5069879;28;20966;-67
2021/12/28 04:44:56;;;;;;;18.45;4.90;;;;;;;7.24;100.00;99218.19;5069905;28;20029;-67
2021/12/28 04:47:22;;;;;;;14.23;5.13;;;;;;;7.23;100.00;99213.09;5069833;28;20029;-67
2021/12/28 04:49:48;;;;;;;12.95;3.53;;;;;;;7.28;100.00;99221.22;5088904;28;20043;-67
2021/12/28 04:52:14;;;;;;;17.65;3.17;;;;;;;7.28;100.00;99210.59;5088941;28;20499;-67
2021/12/28 04:54:39;;;;;;;24.95;6.20;;;;;;;7.33;100.00;99220.56;5087698;28;20093;-67
2021/12/28 04:57:06;;;;;;;11.18;3.50;;;;;;;7.36;100.00;99220.13;5088954;28;20035;-67
2021/12/28 04:59:32;;;;;;;20.80;4.53;;;;;;;7.38;100.00;99228.69;5088888;28;20041;-67
2021/12/28 05:01:57;;;;;;;17.48;2.85;;;;;;;7.41;100.00;99222.94;5088781;28;20389;-67
2021/12/28 05:04:23;;;;;;;12.32;3.30;;;;;;;7.45;100.00;99226.81;5089032;28;20031;-67
2021/12/28 05:06:52;;;;;;;14.80;3.00;;;;;;;7.44;100.00;99219.84;5088857;28;20978;-66
2021/12/28 05:09:18;;;;;;;16.75;4.65;;;;;;;7.48;100.00;99223.72;5088912;28;20028;-67
2021/12/28 05:11:44;;;;;;;14.07;2.95;;;;;;;7.48;100.00;99218.41;5088846;28;20028;-67
2021/12/28 05:14:10;;;;;;;18.05;3.22;;;;;;;7.48;100.00;99210.47;5091196;28;20024;-67
2021/12/28 05:16:36;;;;;;;9.85;3.88;;;;;;;7.48;100.00;99210.47;5092768;28;20475;-67
2021/12/28 05:19:05;;;;;;;12.88;2.30;;;;;;;7.50;100.00;99205.75;5091503;28;20035;-67
2021/12/28 05:21:30;;;;;;;19.45;3.78;;;;;;;7.51;100.00;99207.38;5092806;28;20375;-67
2021/12/28 05:23:56;;;;;;;18.27;5.03;;;;;;;7.52;100.00;99197.56;5092708;28;20039;-67
2021/12/28 05:26:22;;;;;;;8.88;2.88;;;;;;;7.52;100.00;99195.75;5092845;28;20036;-67
2021/12/28 05:28:47;;;;;;;14.98;4.47;;;;;;;7.50;100.00;99191.69;5092434;28;20024;-67
2021/12/28 05:31:12;;;;;;;15.93;3.58;;;;;;;7.53;100.00;99196.53;5092650;28;20471;-67
2021/12/28 05:33:39;;;;;;;15.35;2.47;;;;;;;7.51;100.00;99194.09;5092381;28;20031;-67
2021/12/28 05:36:05;;;;;;;9.27;2.65;;;;;;;7.49;100.00;99193.50;5092388;28;20028;-67
2021/12/28 05:38:31;;;;;;;21.95;4.70;;;;;;;7.52;100.00;99186.94;5091178;28;20031;-67
2021/12/28 05:40:56;;;;;;;15.65;2.53;;;;;;;7.49;100.00;99174.94;5092383;28;20111;-67
2021/12/28 05:43:21;;;;;;;13.43;3.22;;;;;;;7.54;100.00;99177.75;5092399;28;20479;-67
2021/12/28 05:45:46;;;;;;;17.58;3.80;;;;;;;7.55;100.00;99175.94;5092254;28;20142;-67
2021/12/28 05:48:12;;;;;;;12.45;4.00;;;;;;;7.57;100.00;99181.81;5092108;28;20034;-66
2021/12/28 05:50:38;;;;;;;20.45;4.20;;;;;;;7.58;100.00;99178.13;5091681;28;20040;-67
2021/12/28 05:53:03;;;;;;;10.80;3.03;;;;;;;7.55;100.00;99171.44;5091211;28;20432;-67
2021/12/28 05:55:31;;;;;;;12.65;3.08;;;;;;;7.56;100.00;99172.22;5091973;28;20075;-67
2021/12/28 05:57:56;;;;;;;16.65;3.05;;;;;;;7.58;100.00;99170.19;5091927;28;20047;-68
2021/12/28 06:00:22;;;;;;;15.55;4.70;;;;;;;7.59;100.00;99174.44;5091887;28;20050;-67
2021/12/28 06:02:48;;;;;;;14.52;2.95;;;;;;;7.60;100.00;99171.59;5091922;28;20063;-67
2021/12/28 06:05:14;;;;;;;10.52;2.40;;;;;;;7.63;100.00;99171.13;5091626;28;20032;-66
2021/12/28 06:07:39;;;;;;;15.13;3.78;;;;;;;7.67;100.00;99163.53;5091589;28;20111;-66
2021/12/28 06:10:06;;;;;;;12.25;4.07;;;;;;;7.71;100.00;99171.91;5091529;28;20451;-67
2021/12/28 06:12:31;;;;;;;10.18;3.22;;;;;;;7.71;100.00;99167.41;5074285;28;20986;-67
2021/12/28 06:14:57;;;;;;;16.05;2.80;;;;;;;7.73;100.00;99159.19;5072221;28;20037;-67
2021/12/28 06:17:22;;;;;;;10.48;2.78;;;;;;;7.73;100.00;99156.53;5072090;28;20070;-67
2021/12/28 06:19:48;;;;;;;16.88;3.83;;;;;;;7.74;100.00;99163.50;5072158;28;20480;-67
2021/12/28 06:22:14;;;;;;;13.20;1.95;;;;;;;7.73;100.00;99162.69;5072087;28;20043;-67
2021/12/28 06:24:39;;;;;;;17.10;3.30;;;;;;;7.76;100.00;99158.78;5071901;28;20031;-67
2021/12/28 06:27:05;;;;;;;12.65;2.35;;;;;;;7.76;100.00;99154.28;5072082;28;20115;-67
2021/12/28 06:29:30;;;;;;;12.32;2.58;;;;;;;7.80;100.00;99149.34;5071943;28;20479;-67
2021/12/28 06:31:56;;;;;;;7.18;2.92;;;;;;;7.81;100.00;99153.63;5071920;28;20043;-67
2021/12/28 06:34:21;;;;;;;8.30;2.88;;;;;;;7.79;100.00;99147.72;5071941;28;20490;-67
2021/12/28 06:36:47;;;;;;;9.18;3.05;;;;;;;7.78;100.00;99149.56;5071883;28;20040;-67
2021/12/28 06:39:12;;;;;;;11.13;1.92;;;;;;;7.82;100.00;99144.63;5071732;28;20052;-67
2021/12/28 06:41:38;;;;;;;15.13;2.42;;;;;;;7.82;100.00;99145.44;5071768;28;20082;-67
2021/12/28 06:44:09;;;;;;;14.65;3.70;;;;;;;7.84;100.00;99145.22;5071769;28;20495;-67
2021/12/28 06:46:35;;;;;;;9.38;2.25;;;;;;;7.83;100.00;99125.00;5090889;28;20043;-67
2021/12/28 06:49:00;;;;;;;9.20;2.42;;;;;;;7.86;100.00;99140.50;5090217;28;20479;-67
2021/12/28 06:51:26;;;;;;;9.02;2.65;;;;;;;7.87;100.00;99119.03;5090454;28;20119;-67
2021/12/28 06:53:51;;;;;;;9.98;2.38;;;;;;;7.89;100.00;99116.19;5090801;28;20491;-67
2021/12/28 06:56:16;;;;;;;10.00;2.00;;;;;;;7.88;100.00;99117.19;5090735;28;20071;-67
2021/12/28 06:58:42;;;;;;;6.25;2.15;;;;;;;7.88;100.00;99120.66;5090323;28;20059;-67
2021/12/28 07:01:08;;;;;;;9.93;3.22;;;;;;;7.87;100.00;99124.34;5089334;28;20058;-67
2021/12/28 07:03:33;;;;;;;9.50;2.28;;;;;;;7.82;100.00;99126.84;5090492;28;20044;-67
2021/12/28 07:05:59;;;;;;;6.95;1.92;;;;;;;7.84;100.00;99121.34;5090787;28;20032;-67
2021/12/28 07:08:25;;;;;;;8.82;3.10;;;;;;;7.88;100.00;99123.31;5090513;28;20039;-67
2021/12/28 07:10:51;;;;;;;10.90;3.92;;;;;;;7.92;100.00;99121.03;5090265;28;20038;-67
2021/12/28 07:13:17;;;;;;;11.00;2.60;;;;;;;7.93;100.00;99122.66;5090455;28;20031;-67
2021/12/28 07:15:42;;;;;;;12.63;3.22;;;;;;;7.94;100.00;99112.84;5089019;28;20052;-67
2021/12/28 07:18:09;;;;;;;8.25;2.78;;;;;;;7.92;100.00;99115.72;5090166;28;20085;-67
2021/12/28 07:20:34;;;;;;;11.63;3.35;;;;;;;7.92;100.00;99110.41;5090242;28;20024;-67
2021/12/28 07:23:00;;;;;;;6.22;2.67;;;;;;;7.90;100.00;99112.47;5088851;28;20119;-67
2021/12/28 07:25:25;;;;;;;12.52;2.28;;;;;;;7.87;100.00;99113.72;5090152;28;20544;-67
2021/12/28 07:27:51;;;;;;;6.13;2.08;;;;;;;7.92;100.00;99125.53;5090071;28;20042;-67
2021/12/28 07:30:17;;;;;;;6.30;2.30;;;;;;;7.94;100.00;99118.13;5089931;28;20085;-67
2021/12/28 07:32:42;;;;;;;7.22;2.28;;;;;;;7.94;100.00;99124.28;5089796;28;20554;-67
2021/12/28 07:35:09;;;;;;;6.18;2.10;;;;;;;7.95;100.00;99120.59;5089769;28;20036;-67
2021/12/28 07:37:34;;;;;;;11.82;3.38;;;;;;;7.98;100.00;99116.69;5089291;28;20502;-67
2021/12/28 07:40:01;;;;;;;5.13;2.20;;;;;;;7.97;100.00;99123.84;5079524;28;20028;-67
2021/12/28 07:42:26;;;;;;;8.55;2.92;;;;;;;7.96;100.00;99122.19;5087817;28;20086;-67
2021/12/28 07:44:52;;;;;;;7.75;1.95;;;;;;;7.99;100.00;99110.31;5070171;28;20032;-67
2021/12/28 07:47:17;;;;;;;5.57;2.08;;;;;;;7.99;100.00;99102.34;5070346;28;20055;-67
2021/12/28 07:49:43;;;;;;;8.20;1.90;;;;;;;8.00;100.00;99096.84;5070239;28;20380;-67
2021/12/28 07:52:08;;;;;;;10.32;2.13;;;;;;;7.98;100.00;99106.88;5070194;28;20423;-67
2021/12/28 07:54:34;;;;;;;9.15;2.22;;;;;;;8.00;100.00;99104.00;5070247;28;20027;-67
2021/12/28 07:57:00;;;;;;;10.52;2.58;;;;;;;8.03;100.00;99106.19;5070349;28;20064;-67
2021/12/28 07:59:25;;;;;;;3.92;2.03;;;;;;;8.03;100.00;99107.00;5069947;28;20055;-67
2021/12/28 08:01:51;;;;;;;6.05;2.13;;;;;;;8.04;100.00;99102.50;5070213;28;20455;-67
2021/12/28 08:04:16;;;;;;;7.78;1.90;;;;;;;8.09;100.00;99106.09;5070071;28;20037;-67
2021/12/28 08:06:41;;;;;;;5.55;1.50;;;;;;;8.09;100.00;99105.28;5070158;28;20111;-66
2021/12/28 08:09:07;;;;;;;8.57;1.92;;;;;;;8.09;100.00;99114.06;5070085;28;20029;-66
2021/12/28 08:11:33;;;;;;;3.88;1.70;;;;;;;8.08;100.00;99109.81;5070119;28;20051;-67
2021/12/28 08:13:59;;;;;;;4.05;1.58;;;;;;;8.03;100.00;99106.19;5070087;28;20467;-67
2021/12/28 08:16:24;;;;;;;5.90;2.08;;;;;;;8.04;100.00;99103.34;5069928;28;20031;-66
2021/12/28 08:18:49;;;;;;;10.55;2.95;;;;;;;8.02;100.00;99102.75;5070017;28;20020;-67
2021/12/28 08:21:15;;;;;;;3.22;1.77;;;;;;;8.00;100.00;99096.84;5070131;28;20085;-66
2021/12/28 08:23:40;;;;;;;4.35;1.58;;;;;;;7.99;100.00;99097.88;5070037;28;20115;-66
2021/12/28 08:26:06;;;;;;;2.33;1.60;;;;;;;8.02;100.00;99108.06;5067982;28;20464;-66
2021/12/28 08:28:31;;;;;;;5.97;1.50;;;;;;;8.00;100.00;99104.00;5069721;28;20059;-67
2021/12/28 08:30:57;;;;;;;6.97;2.45;;;;;;;8.01;100.00;99100.28;5069948;28;20040;-67
2021/12/28 08:33:23;;;;;;;9.50;2.15;;;;;;;7.98;100.00;99098.91;5069932;28;20478;-68
2021/12/28 08:35:49;;;;;;;8.32;2.22;;;;;;;8.01;100.00;99098.44;5089122;28;20028;-67
2021/12/28 08:38:15;;;;;;;3.05;1.95;;;;;;;8.02;100.00;99091.31;5089043;28;20036;-68
2021/12/28 08:40:42;;;;;;;6.03;2.85;;;;;;;8.02;100.00;99091.31;5089088;28;20032;-67
2021/12/28 08:43:08;;;;;;;3.28;1.75;;;;;;;8.03;100.00;99084.97;5089386;28;20028;-67
2021/12/28 08:45:34;;;;;;;5.72;2.15;;;;;;;8.03;100.00;99082.31;5089044;28;20028;-67
2021/12/28 08:48:01;;;;;;;7.10;2.60;;;;;;;8.05;100.00;99085.56;5087713;28;20035;-67
2021/12/28 08:50:27;;;;;;;3.30;2.28;;;;;;;8.05;100.00;99086.38;5073689;28;20391;-66
2021/12/28 08:52:53;;;;;;;5.65;2.47;;;;;;;8.08;100.00;99087.75;5073840;28;20063;-66
2021/12/28 08:55:20;;;;;;;8.55;2.90;;;;;;;8.09;100.00;99076.91;5073683;28;20486;-67
2021/12/28 08:57:46;;;;;;;9.32;2.78;;;;;;;8.09;100.00;99084.88;5073496;28;20367;-67
2021/12/28 09:00:23;;;;;;;5.55;2.25;;;;;;;8.13;100.00;99079.94;5074555;28;20035;-67
2021/12/28 09:02:51;;;;;;;5.82;2.45;;;;;;;8.16;100.00;99086.66;5076122;28;20047;-66
2021/12/28 09:05:17;;;;;;;5.25;2.65;;;;;;;8.20;100.00;99085.97;5078480;28;20261;-67
2021/12/28 09:07:42;;;;;;;4.95;2.28;;;;;;;8.22;100.00;99080.41;5078068;28;20034;-66
2021/12/28 09:10:08;;;;;;;6.85;2.72;;;;;;;8.24;100.00;99076.50;5076535;28;20032;-66
2021/12/28 09:12:33;;;;;;;6.78;2.45;;;;;;;8.24;100.00;99059.78;5076570;28;20115;-66
2021/12/28 09:14:59;;;;;;;4.47;2.85;;;;;;;8.26;100.00;99063.00;5077385;28;20428;-66
2021/12/28 09:17:24;;;;;;;5.32;2.22;;;;;;;8.30;100.00;99070.28;5077568;28;20023;-66
2021/12/28 09:19:50;;;;;;;5.60;2.47;;;;;;;8.33;100.00;99069.03;5077215;28;20408;-66
2021/12/28 09:22:15;;;;;;;5.18;2.20;;;;;;;8.31;100.00;99065.81;5077054;28;20039;-66
2021/12/28 09:24:41;;;;;;;7.45;3.97;;;;;;;8.38;100.00;99055.06;5075773;28;20028;-66
2021/12/28 09:27:07;;;;;;;7.10;2.88;;;;;;;8.41;100.00;99071.41;5076782;28;20129;-66
2021/12/28 09:29:32;;;;;;;5.72;2.17;;;;;;;8.40;100.00;99059.16;5076325;28;20039;-66
2021/12/28 09:31:59;;;;;;;7.50;3.28;;;;;;;8.45;100.00;99053.97;5076708;28;20117;-66
2021/12/28 09:34:26;;;;;;;6.80;2.42;;;;;;;8.50;100.00;99050.63;5077101;28;20805;-67
2021/12/28 09:36:51;;;;;;;5.78;2.05;;;;;;;8.54;100.00;99063.25;5075897;28;20082;-67
2021/12/28 09:39:22;;;;;;;5.10;2.47;;;;;;;8.60;100.00;99052.75;5075809;28;20434;-66
2021/12/28 09:41:51;;;;;;;3.43;2.33;;;;;;;8.61;100.00;99044.53;5077045;28;20061;-66
2021/12/28 09:44:16;;;;;;;4.10;2.08;;;;;;;8.68;100.00;99047.09;5076861;28;20028;-67
2021/12/28 09:46:42;;;;;;;5.38;2.47;;;;;;;8.70;100.00;99045.84;5076970;28;20030;-66
2021/12/28 09:49:08;;;;;;;3.90;2.30;;;;;;;8.75;100.00;99039.81;5076332;28;20016;-66
2021/12/28 09:51:33;;;;;;;4.32;2.30;;;;;;;8.75;100.00;99040.66;5076832;28;20091;-66
2021/12/28 09:53:59;;;;;;;5.20;2.60;;;;;;;8.76;100.00;99031.63;5075750;28;20102;-65
2021/12/28 09:56:24;;;;;;;4.13;2.25;;;;;;;8.80;100.00;99031.16;5074690;28;20032;-66
2021/12/28 09:58:50;;;;;;;3.08;2.15;;;;;;;8.82;100.00;99034.41;5075821;28;20052;-66
2021/12/28 10:01:15;;;;;;;6.35;2.08;;;;;;;8.81;100.00;99033.59;5066938;28;20032;-67
2021/12/28 10:03:41;;;;;;;6.13;2.67;;;;;;;8.78;100.00;99024.22;5074720;28;20399;-66
2021/12/28 10:06:21;;;;;;;5.50;2.47;;;;;;;8.81;100.00;99030.13;5076361;28;20402;-66
2021/12/28 10:09:02;;;;;;;4.20;2.05;;;;;;;8.83;100.00;99028.03;5075625;28;20426;-65
2021/12/28 10:11:32;;;;;;;4.55;2.80;;;;;;;8.87;100.00;99022.03;5075631;28;20020;-66
2021/12/28 10:14:16;;;;;;;5.28;2.47;;;;;;;8.90;100.00;99005.63;5075687;28;20368;-66
2021/12/28 10:17:04;;;;;;;3.45;2.30;;;;;;;8.99;100.00;99001.59;5075930;28;20028;-65
2021/12/28 10:19:42;;;;;;;3.05;2.20;;;;;;;9.04;100.00;98997.41;5075129;28;20424;-65
2021/12/28 10:22:29;;;;;;;5.50;2.35;;;;;;;9.06;100.00;98997.97;5075747;28;20661;-67
2021/12/28 10:25:02;;;;;;;7.00;2.75;;;;;;;9.07;100.00;98989.00;5072604;28;20475;-67
2021/12/28 10:27:30;;;;;;;3.78;2.03;;;;;;;9.09;100.00;98994.84;5091284;28;20031;-67
2021/12/28 10:30:06;;;;;;;3.60;2.17;;;;;;;9.08;100.00;98998.56;5091455;28;20101;-67
2021/12/28 10:32:33;;;;;;;4.78;2.78;;;;;;;9.07;100.00;98986.31;5091189;28;20032;-67
2021/12/28 10:35:04;;;;;;;4.47;2.28;;;;;;;9.08;100.00;98979.97;5091272;28;20084;-68
2021/12/28 10:37:33;;;;;;;6.03;2.67;;;;;;;9.11;100.00;98974.16;5091212;28;20546;-67
2021/12/28 10:40:00;;;;;;;6.65;2.67;;;;;;;9.13;100.00;98970.22;5091022;28;20035;-67
2021/12/28 10:42:59;;;;;;;5.70;2.60;;;;;;;9.16;100.00;98967.09;5091167;28;20055;-67
2021/12/28 10:45:31;;;;;;;6.13;2.85;;;;;;;9.18;100.00;98954.38;5090812;28;20024;-67
2021/12/28 10:48:02;;;;;;;4.03;2.70;;;;;;;9.20;100.00;98943.53;5091042;28;20235;-67
2021/12/28 10:50:34;;;;;;;5.35;2.70;;;;;;;9.29;100.00;98957.25;5090896;28;20277;-67
2021/12/28 10:53:11;;;;;;;4.88;2.75;;;;;;;9.34;100.00;98947.53;5091129;28;20028;-68
2021/12/28 10:55:39;;;;;;;5.93;2.67;;;;;;;9.40;100.00;98945.78;5091026;28;20371;-67
2021/12/28 10:58:05;;;;;;;7.25;2.58;;;;;;;9.42;100.00;98947.16;5090591;28;20044;-67
2021/12/28 11:00:31;;;;;;;4.95;2.38;;;;;;;9.46;100.00;98949.34;5090770;28;20020;-67
2021/12/28 11:03:18;;;;;;;4.00;2.17;;;;;;;9.47;100.00;98949.09;5090839;28;20093;-67
2021/12/28 11:05:48;;;;;;;4.05;2.17;;;;;;;9.47;100.00;98935.00;5090755;28;20043;-67
2021/12/28 11:08:15;;;;;;;3.08;2.10;;;;;;;9.45;100.00;98937.88;5090559;28;20094;-67
2021/12/28 11:10:50;;;;;;;3.05;1.85;;;;;;;9.41;100.00;98931.44;5089518;28;20035;-67
2021/12/28 11:13:23;;;;;;;5.22;2.75;;;;;;;9.39;100.00;98925.53;5090543;28;20073;-67
2021/12/28 11:15:49;;;;;;;4.22;3.40;;;;;;;9.36;100.00;98926.00;5090295;28;20554;-67
2021/12/28 11:18:30;;;;;;;4.57;2.58;;;;;;;9.33;100.00;98919.31;5090652;28;20088;-67
2021/12/28 11:20:58;;;;;;;4.40;2.00;;;;;;;9.29;100.00;98918.16;5090553;28;20067;-67
2021/12/28 11:23:26;;;;;;;5.88;2.72;;;;;;;9.28;100.00;98905.91;5089168;28;20024;-68
2021/12/28 11:26:05;;;;;;;3.78;2.58;;;;;;;9.27;100.00;98906.13;5090221;28;20027;-68
2021/12/28 11:28:31;;;;;;;5.38;2.20;;;;;;;9.25;100.00;98901.06;5090160;28;20027;-68
2021/12/28 11:31:07;;;;;;;3.35;2.45;;;;;;;9.23;100.00;98897.84;5090106;28;20561;-68